Time;durP1;ratioP1;P1;durP2;ratioP2;P2;SDS_P1;SDS_P2;PMS_P1;PMS_P2;Temp;Humidity;BMP_temperature;BMP_pressure;BME280_temperature;BME280_humidity;BME280_pressure;Samples;Min_cycle;Max_cycle;Signal;HPM_P1;HPM_P2
2022/11/15 00:00:46;;;;;;;;;;;19.10;71.40;;;;;;5064824;28;809;-68
2022/11/15 00:03:13;;;;;;;;;;;19.10;71.40;;;;;;5067010;28;1951;-68
2022/11/15 00:05:38;;;;;;;;;;;19.10;71.40;;;;;;5066174;28;1022;-68
2022/11/15 00:08:04;;;;;;;;;;;19.10;71.40;;;;;;5063955;28;888;-69
2022/11/15 00:10:29;;;;;;;;;;;19.10;71.40;;;;;;5064209;28;1049;-68
2022/11/15 00:12:55;;;;;;;;;;;19.10;71.40;;;;;;5053553;28;1233;-68
2022/11/15 00:15:20;;;;;;;;;;;19.10;71.40;;;;;;5065593;28;863;-68
2022/11/15 00:17:48;;;;;;;;;;;19.10;71.40;;;;;;5068070;28;796;-68
2022/11/15 00:20:13;;;;;;;;;;;19.10;71.40;;;;;;5061246;28;1359;-68
2022/11/15 00:22:39;;;;;;;;;;;19.10;71.40;;;;;;5067665;28;1387;-68
2022/11/15 00:25:04;;;;;;;;;;;19.10;71.40;;;;;;5066054;28;1898;-68
2022/11/15 00:27:30;;;;;;;;;;;19.10;71.40;;;;;;5049992;28;1346;-68
2022/11/15 00:29:55;;;;;;;;;;;19.10;71.40;;;;;;5066414;28;1251;-68
2022/11/15 00:32:21;;;;;;;;;;;19.10;71.40;;;;;;5065131;28;1303;-68
2022/11/15 00:34:46;;;;;;;;;;;19.10;71.40;;;;;;5066161;28;1268;-68
2022/11/15 00:37:12;;;;;;;;;;;19.10;71.40;;;;;;5069498;28;1562;-69
2022/11/15 00:39:37;;;;;;;;;;;19.10;71.40;;;;;;5066092;28;1373;-69
2022/11/15 00:42:03;;;;;;;;;;;19.10;72.10;;;;;;5066206;28;1406;-69
2022/11/15 00:44:28;;;;;;;;;;;19.10;71.40;;;;;;5066996;28;1906;-67
2022/11/15 00:46:53;;;;;;;;;;;19.10;71.40;;;;;;5064133;28;1266;-68
2022/11/15 00:49:19;;;;;;;;;;;19.10;71.40;;;;;;5066576;28;1739;-68
2022/11/15 00:51:44;;;;;;;;;;;19.10;71.40;;;;;;5067057;28;1315;-68
2022/11/15 00:54:10;;;;;;;;;;;19.10;71.40;;;;;;5064714;28;1497;-69
2022/11/15 00:56:35;;;;;;;;;;;19.10;71.40;;;;;;5065464;28;1268;-68
2022/11/15 00:59:01;;;;;;;;;;;19.10;71.40;;;;;;5065722;28;1344;-68
2022/11/15 01:01:26;;;;;;;;;;;19.10;71.40;;;;;;5065530;28;1346;-67
2022/11/15 01:03:52;;;;;;;;;;;19.10;71.40;;;;;;5064986;28;1905;-69
2022/11/15 01:06:17;;;;;;;;;;;19.10;71.40;;;;;;5065860;28;1429;-69
2022/11/15 01:08:42;;;;;;;;;;;19.10;71.40;;;;;;5066241;28;1394;-68
2022/11/15 01:11:09;;;;;;;;;;;19.10;71.40;;;;;;5064530;28;1344;-68
2022/11/15 01:13:34;;;;;;;;;;;19.10;71.40;;;;;;5065004;28;1330;-68
2022/11/15 01:16:26;;;;;;;;;;;19.10;71.40;;;;;;5048618;28;1386;-71
2022/11/15 01:18:52;;;;;;;;;;;19.10;71.40;;;;;;5043859;28;1668;-68
2022/11/15 01:21:18;;;;;;;;;;;19.10;71.40;;;;;;5066218;28;1327;-69
2022/11/15 01:23:44;;;;;;;;;;;19.10;71.40;;;;;;5066811;28;1985;-69
2022/11/15 01:26:10;;;;;;;;;;;19.10;71.40;;;;;;5047618;28;1372;-69
2022/11/15 01:28:36;;;;;;;;;;;19.10;71.50;;;;;;5052834;28;1385;-69
2022/11/15 01:31:03;;;;;;;;;;;19.10;72.20;;;;;;5048399;28;1421;-69
2022/11/15 01:33:29;;;;;;;;;;;19.10;71.50;;;;;;5069977;28;1318;-70
2022/11/15 01:35:54;;;;;;;;;;;19.10;71.40;;;;;;5050489;28;1487;-68
2022/11/15 01:38:20;;;;;;;;;;;19.10;72.20;;;;;;5066166;28;1352;-67
2022/11/15 01:40:45;;;;;;;;;;;19.10;71.40;;;;;;5063307;28;834;-68
2022/11/15 01:43:23;;;;;;;;;;;19.10;71.50;;;;;;5064378;28;1886;-67
2022/11/15 01:45:50;;;;;;;;;;;19.10;71.50;;;;;;5065355;28;1122;-68
2022/11/15 01:48:15;;;;;;;;;;;19.10;71.50;;;;;;5047829;28;1294;-67
2022/11/15 01:50:40;;;;;;;;;;;19.10;71.40;;;;;;5045425;28;825;-69
2022/11/15 01:53:06;;;;;;;;;;;19.10;71.50;;;;;;5050817;28;942;-69
2022/11/15 01:55:31;;;;;;;;;;;19.10;71.50;;;;;;5028825;28;1418;-69
2022/11/15 01:57:59;;;;;;;;;;;19.10;71.40;;;;;;5042171;28;892;-69
2022/11/15 02:00:24;;;;;;;;;;;19.10;71.50;;;;;;5052323;28;1279;-69
2022/11/15 02:02:50;;;;;;;;;;;19.10;71.50;;;;;;5064649;28;1959;-68
2022/11/15 02:05:15;;;;;;;;;;;19.10;71.40;;;;;;5063125;28;794;-68
2022/11/15 02:07:41;;;;;;;;;;;19.10;71.50;;;;;;5062167;28;896;-69
2022/11/15 02:10:07;;;;;;;;;;;19.10;71.50;;;;;;5062245;28;1357;-69
2022/11/15 02:12:33;;;;;;;;;;;19.10;71.50;;;;;;5064747;28;919;-69
2022/11/15 02:14:58;;;;;;;;;;;19.10;72.20;;;;;;5046212;28;1532;-68
2022/11/15 02:17:36;;;;;;;;;;;19.10;71.50;;;;;;5045077;28;864;-69
2022/11/15 02:20:20;;;;;;;;;;;19.10;71.50;;;;;;5063610;28;1333;-68
2022/11/15 02:23:05;;;;;;;;;;;19.10;71.50;;;;;;5061945;28;824;-69
2022/11/15 02:25:49;;;;;;;;;;;19.10;71.50;;;;;;5063045;28;946;-68
2022/11/15 02:28:23;;;;;;;;;;;19.10;71.50;;;;;;5060849;28;1298;-67
2022/11/15 02:31:09;;;;;;;;;;;19.10;71.50;;;;;;5063906;28;1282;-67
2022/11/15 02:33:36;;;;;;;;;;;19.10;71.50;;;;;;5062359;28;1425;-67
2022/11/15 02:36:22;;;;;;;;;;;19.10;71.50;;;;;;5050918;28;934;-68
2022/11/15 02:38:57;;;;;;;;;;;19.10;71.50;;;;;;5064775;28;1344;-68
2022/11/15 02:41:46;;;;;;;;;;;19.10;71.50;;;;;;5047817;28;843;-68
2022/11/15 02:44:12;;;;;;;;;;;19.10;71.50;;;;;;5049355;28;1923;-70
2022/11/15 02:49:26;;;;;;;;;;;19.10;71.50;;;;;;5050520;28;1351;-69
2022/11/15 02:51:51;;;;;;;;;;;19.10;71.50;;;;;;5063113;28;837;-69
2022/11/15 02:54:28;;;;;;;;;;;19.10;71.50;;;;;;5050092;28;845;-69
2022/11/15 02:56:54;;;;;;;;;;;19.10;71.50;;;;;;5049979;28;845;-69
2022/11/15 02:59:39;;;;;;;;;;;19.00;71.40;;;;;;5062640;28;1254;-69
2022/11/15 03:02:13;;;;;;;;;;;19.00;71.50;;;;;;5060699;28;991;-69
2022/11/15 03:04:45;;;;;;;;;;;19.10;71.50;;;;;;5063541;28;1899;-69
2022/11/15 03:07:16;;;;;;;;;;;19.00;71.40;;;;;;5047736;28;895;-69
2022/11/15 03:09:51;;;;;;;;;;;19.10;71.50;;;;;;5045783;28;1321;-69
2022/11/15 03:12:45;;;;;;;;;;;19.10;71.50;;;;;;5046377;28;891;-69
2022/11/15 03:15:37;;;;;;;;;;;19.10;71.50;;;;;;5055754;28;1282;-69
2022/11/15 03:18:26;;;;;;;;;;;19.10;71.50;;;;;;5063169;28;1129;-68
2022/11/15 03:20:51;;;;;;;;;;;19.10;71.50;;;;;;5055464;28;1385;-68
2022/11/15 03:23:17;;;;;;;;;;;19.10;71.50;;;;;;5045605;28;2000;-68
2022/11/15 03:25:46;;;;;;;;;;;19.10;71.40;;;;;;5065553;28;1272;-68
2022/11/15 03:28:12;;;;;;;;;;;19.10;71.50;;;;;;5040655;28;1255;-68
2022/11/15 03:30:37;;;;;;;;;;;19.00;71.40;;;;;;5067307;28;1026;-68
2022/11/15 03:33:03;;;;;;;;;;;19.10;71.40;;;;;;5051257;28;1069;-68
2022/11/15 03:35:30;;;;;;;;;;;19.10;71.40;;;;;;5049843;28;835;-68
2022/11/15 03:38:14;;;;;;;;;;;19.10;71.40;;;;;;5049614;28;1078;-68
2022/11/15 03:40:40;;;;;;;;;;;19.10;71.40;;;;;;5066064;28;816;-68
2022/11/15 03:43:29;;;;;;;;;;;19.10;71.50;;;;;;5064311;28;1914;-68
2022/11/15 03:45:55;;;;;;;;;;;19.10;71.50;;;;;;5057745;28;1303;-69
2022/11/15 03:48:21;;;;;;;;;;;19.10;71.40;;;;;;5041812;28;1310;-69
2022/11/15 03:50:47;;;;;;;;;;;19.10;71.40;;;;;;5043616;28;1114;-70
2022/11/15 03:53:12;;;;;;;;;;;19.10;71.40;;;;;;5045213;28;809;-69
2022/11/15 03:55:38;;;;;;;;;;;19.10;71.40;;;;;;5044921;28;1476;-69
2022/11/15 03:58:03;;;;;;;;;;;19.10;71.40;;;;;;5065099;28;918;-69
2022/11/15 04:00:29;;;;;;;;;;;19.10;71.40;;;;;;5049183;28;1249;-69
2022/11/15 04:02:54;;;;;;;;;;;19.10;71.40;;;;;;5048446;28;1906;-69
2022/11/15 04:05:20;;;;;;;;;;;19.00;71.30;;;;;;5050356;28;851;-69
2022/11/15 04:07:45;;;;;;;;;;;19.10;71.40;;;;;;5049757;28;1543;-70
2022/11/15 04:10:11;;;;;;;;;;;19.10;71.40;;;;;;5061128;28;1237;-69
2022/11/15 04:12:37;;;;;;;;;;;19.10;71.40;;;;;;5045681;28;880;-68
2022/11/15 04:15:12;;;;;;;;;;;19.10;71.40;;;;;;5043599;28;887;-68
2022/11/15 04:17:38;;;;;;;;;;;19.10;71.40;;;;;;5046388;28;916;-70
2022/11/15 04:26:02;;;;;;;;;;;19.10;71.50;;;;;;5056935;28;1255;-68
2022/11/15 04:28:28;;;;;;;;;;;19.10;71.40;;;;;;5066318;28;1342;-69
2022/11/15 04:30:53;;;;;;;;;;;19.10;71.40;;;;;;5062006;28;1198;-68
2022/11/15 04:33:19;;;;;;;;;;;19.10;71.40;;;;;;5066400;28;1173;-68
2022/11/15 04:37:11;;;;;;;;;;;19.10;71.40;;;;;;5052144;28;827;-69
2022/11/15 04:38:30;;;;;;;;;;;19.10;71.40;;;;;;5063649;28;1347;-69
2022/11/15 04:40:59;;;;;;;;;;;19.10;71.40;;;;;;5051765;28;827;-69
2022/11/15 04:43:24;;;;;;;;;;;19.10;71.40;;;;;;5064713;28;1898;-69
2022/11/15 04:45:49;;;;;;;;;;;19.10;71.40;;;;;;5064595;28;1003;-68
2022/11/15 04:48:15;;;;;;;;;;;19.00;71.40;;;;;;5070562;28;1253;-68
2022/11/15 04:50:40;;;;;;;;;;;19.00;71.40;;;;;;5067408;28;999;-69
2022/11/15 04:53:06;;;;;;;;;;;19.00;71.40;;;;;;5067622;28;1186;-69
2022/11/15 04:55:31;;;;;;;;;;;19.10;71.40;;;;;;5064237;28;1232;-69
2022/11/15 04:58:00;;;;;;;;;;;19.10;71.40;;;;;;5064351;28;925;-69
2022/11/15 05:00:25;;;;;;;;;;;19.00;71.30;;;;;;5066462;28;1240;-68
2022/11/15 05:05:35;;;;;;;;;;;19.00;71.40;;;;;;5052132;28;777;-68
2022/11/15 05:08:01;;;;;;;;;;;19.00;71.40;;;;;;5065665;28;982;-68
2022/11/15 05:10:26;;;;;;;;;;;19.10;71.40;;;;;;5049499;28;1208;-68
2022/11/15 05:12:51;;;;;;;;;;;19.10;71.40;;;;;;5061510;28;780;-69
2022/11/15 05:15:17;;;;;;;;;;;19.10;72.10;;;;;;5065742;28;856;-69
2022/11/15 05:17:42;;;;;;;;;;;19.10;71.30;;;;;;5065315;28;787;-68
2022/11/15 05:20:08;;;;;;;;;;;19.10;71.20;;;;;;5062794;28;1271;-69
2022/11/15 05:22:34;;;;;;;;;;;19.10;71.20;;;;;;5062016;28;838;-69
2022/11/15 05:24:59;;;;;;;;;;;19.20;71.20;;;;;;5061853;28;1973;-68
2022/11/15 05:27:24;;;;;;;;;;;19.20;71.10;;;;;;5066682;28;1284;-69
2022/11/15 05:29:50;;;;;;;;;;;19.20;71.00;;;;;;5066083;28;1263;-69
2022/11/15 05:32:15;;;;;;;;;;;19.20;70.90;;;;;;5066122;28;1349;-69
2022/11/15 05:34:41;;;;;;;;;;;19.20;70.70;;;;;;5049582;28;954;-68
2022/11/15 05:37:06;;;;;;;;;;;19.30;70.70;;;;;;5034626;28;1186;-69
2022/11/15 05:39:32;;;;;;;;;;;19.30;70.60;;;;;;5049480;28;1339;-68
2022/11/15 05:42:00;;;;;;;;;;;19.30;70.50;;;;;;5065354;28;811;-69
2022/11/15 05:44:26;;;;;;;;;;;19.30;70.40;;;;;;5050635;28;1952;-68
2022/11/15 05:46:53;;;;;;;;;;;19.30;70.30;;;;;;5063099;28;786;-68
2022/11/15 05:49:19;;;;;;;;;;;19.40;70.30;;;;;;5045986;28;1366;-68
2022/11/15 05:51:44;;;;;;;;;;;19.40;70.20;;;;;;5064945;28;838;-68
2022/11/15 05:54:10;;;;;;;;;;;19.40;70.20;;;;;;5050548;28;887;-69
2022/11/15 05:56:35;;;;;;;;;;;19.40;70.10;;;;;;5047583;28;891;-68
2022/11/15 05:59:01;;;;;;;;;;;19.40;70.10;;;;;;5060457;28;1245;-69
2022/11/15 06:01:26;;;;;;;;;;;19.40;70.00;;;;;;5051352;28;907;-68
2022/11/15 06:03:52;;;;;;;;;;;19.40;70.00;;;;;;5064922;28;1910;-68
2022/11/15 06:06:17;;;;;;;;;;;19.40;69.90;;;;;;5067365;28;868;-68
2022/11/15 06:08:43;;;;;;;;;;;19.40;69.90;;;;;;5063503;28;1318;-70
2022/11/15 06:11:08;;;;;;;;;;;19.40;69.80;;;;;;5062680;28;784;-68
2022/11/15 06:13:34;;;;;;;;;;;19.50;69.90;;;;;;5066546;28;782;-68
2022/11/15 06:15:59;;;;;;;;;;;19.50;69.80;;;;;;5064282;28;886;-68
2022/11/15 06:18:25;;;;;;;;;;;19.50;69.80;;;;;;5066860;28;1399;-69
2022/11/15 06:20:50;;;;;;;;;;;19.50;69.80;;;;;;5065568;28;834;-69
2022/11/15 06:23:16;;;;;;;;;;;19.50;69.70;;;;;;5063668;28;1959;-67
2022/11/15 06:25:41;;;;;;;;;;;19.50;69.70;;;;;;5064394;28;1932;-69
2022/11/15 06:28:07;;;;;;;;;;;19.50;69.70;;;;;;5065313;28;994;-69
2022/11/15 06:30:32;;;;;;;;;;;19.50;69.60;;;;;;5063826;28;1228;-68
2022/11/15 06:32:58;;;;;;;;;;;19.50;69.60;;;;;;5052815;28;793;-67
2022/11/15 06:35:24;;;;;;;;;;;19.50;69.50;;;;;;5063189;28;837;-68
2022/11/15 06:37:49;;;;;;;;;;;19.50;69.50;;;;;;5059893;28;1406;-67
2022/11/15 06:40:15;;;;;;;;;;;19.50;69.50;;;;;;5066257;28;1252;-67
2022/11/15 06:42:40;;;;;;;;;;;19.60;69.50;;;;;;5066928;28;788;-68
2022/11/15 06:45:06;;;;;;;;;;;19.50;69.40;;;;;;5065139;28;1980;-68
2022/11/15 06:47:32;;;;;;;;;;;19.50;69.40;;;;;;5064371;28;789;-67
2022/11/15 06:49:57;;;;;;;;;;;19.60;69.40;;;;;;5063961;28;1264;-69
2022/11/15 06:52:22;;;;;;;;;;;19.50;69.40;;;;;;5066718;28;820;-69
2022/11/15 06:54:48;;;;;;;;;;;19.60;69.40;;;;;;5064368;28;886;-69
2022/11/15 06:57:13;;;;;;;;;;;19.50;69.30;;;;;;5059406;28;923;-70
2022/11/15 06:59:39;;;;;;;;;;;19.50;69.30;;;;;;5064108;28;1219;-70
2022/11/15 07:02:04;;;;;;;;;;;19.60;69.30;;;;;;5060406;28;835;-69
2022/11/15 07:04:30;;;;;;;;;;;19.60;69.30;;;;;;5061608;28;1963;-69
2022/11/15 07:06:55;;;;;;;;;;;19.60;69.30;;;;;;5064386;28;809;-69
2022/11/15 07:09:21;;;;;;;;;;;19.50;69.20;;;;;;5061911;28;1226;-69
2022/11/15 07:11:46;;;;;;;;;;;19.60;69.30;;;;;;5065055;28;874;-69
2022/11/15 07:14:12;;;;;;;;;;;19.60;69.30;;;;;;5063830;28;883;-69
2022/11/15 07:16:37;;;;;;;;;;;19.60;69.30;;;;;;5059452;28;1066;-70
2022/11/15 07:19:03;;;;;;;;;;;19.60;69.30;;;;;;5049959;28;1194;-69
2022/11/15 07:21:28;;;;;;;;;;;19.60;69.40;;;;;;5046306;28;1246;-69
2022/11/15 07:23:53;;;;;;;;;;;19.60;69.30;;;;;;5061479;28;2001;-69
2022/11/15 07:26:19;;;;;;;;;;;19.60;69.30;;;;;;5067366;28;1306;-70
2022/11/15 07:28:44;;;;;;;;;;;19.60;69.30;;;;;;5064460;28;1350;-69
2022/11/15 07:31:10;;;;;;;;;;;19.50;69.30;;;;;;5060114;28;855;-69
2022/11/15 07:33:35;;;;;;;;;;;19.60;69.30;;;;;;5065503;28;1169;-69
2022/11/15 07:36:02;;;;;;;;;;;19.60;69.40;;;;;;5048272;28;847;-69
2022/11/15 07:38:27;;;;;;;;;;;19.60;69.40;;;;;;5049409;28;1291;-69
2022/11/15 07:40:57;;;;;;;;;;;19.60;69.40;;;;;;5061682;28;879;-70
2022/11/15 07:43:22;;;;;;;;;;;19.60;69.40;;;;;;5043157;28;1902;-70
2022/11/15 07:45:48;;;;;;;;;;;19.60;69.40;;;;;;5060088;28;789;-70
2022/11/15 07:48:13;;;;;;;;;;;19.60;69.40;;;;;;5061477;28;1338;-70
2022/11/15 07:50:44;;;;;;;;;;;19.60;69.40;;;;;;5065763;28;2484;-71
2022/11/15 07:53:10;;;;;;;;;;;19.60;69.40;;;;;;5065495;28;1223;-71
2022/11/15 07:55:36;;;;;;;;;;;19.60;69.40;;;;;;5046471;28;1449;-68
2022/11/15 07:58:05;;;;;;;;;;;19.60;69.40;;;;;;5047949;28;1319;-68
2022/11/15 08:00:30;;;;;;;;;;;19.50;69.30;;;;;;5051667;28;1465;-67
2022/11/15 08:03:05;;;;;;;;;;;19.60;69.40;;;;;;5068918;28;915;-69
2022/11/15 08:05:31;;;;;;;;;;;19.60;69.30;;;;;;5053812;28;856;-69
2022/11/15 08:07:56;;;;;;;;;;;19.60;69.30;;;;;;5068387;28;923;-69
2022/11/15 08:10:22;;;;;;;;;;;19.60;69.30;;;;;;5068739;28;1299;-69
2022/11/15 08:12:47;;;;;;;;;;;19.60;69.20;;;;;;5067565;28;925;-69
2022/11/15 08:15:13;;;;;;;;;;;19.60;69.20;;;;;;5065842;28;1930;-69
2022/11/15 08:17:38;;;;;;;;;;;19.60;69.20;;;;;;5042926;28;4589;-69
2022/11/15 08:20:04;;;;;;;;;;;19.60;69.20;;;;;;5066095;28;4122;-69
2022/11/15 08:22:29;;;;;;;;;;;19.60;69.20;;;;;;5068481;28;829;-69
2022/11/15 08:24:55;;;;;;;;;;;19.60;69.10;;;;;;5063925;28;1909;-69
2022/11/15 08:27:21;;;;;;;;;;;19.60;69.10;;;;;;5063494;28;1268;-69
2022/11/15 08:29:47;;;;;;;;;;;19.60;69.10;;;;;;5067611;28;1350;-69
2022/11/15 08:32:12;;;;;;;;;;;19.60;69.00;;;;;;5068003;28;1355;-69
2022/11/15 08:34:38;;;;;;;;;;;19.60;69.00;;;;;;5064960;28;1240;-69
2022/11/15 08:37:03;;;;;;;;;;;19.60;69.00;;;;;;5064714;28;1567;-68
2022/11/15 08:39:29;;;;;;;;;;;19.70;69.00;;;;;;5065699;28;1367;-69
2022/11/15 08:41:54;;;;;;;;;;;19.70;69.00;;;;;;5065170;28;1276;-68
2022/11/15 08:44:20;;;;;;;;;;;19.60;68.90;;;;;;5065337;28;1973;-69
2022/11/15 08:46:45;;;;;;;;;;;19.60;68.90;;;;;;5063356;28;1593;-69
2022/11/15 08:49:11;;;;;;;;;;;19.70;69.00;;;;;;5067622;28;1445;-69
2022/11/15 08:51:36;;;;;;;;;;;19.70;68.90;;;;;;5067055;28;1476;-67
2022/11/15 08:54:02;;;;;;;;;;;19.70;68.90;;;;;;5065705;28;1532;-69
2022/11/15 08:56:27;;;;;;;;;;;19.70;68.90;;;;;;5066598;28;1322;-68
2022/11/15 08:58:53;;;;;;;;;;;19.70;68.40;;;;;;5060719;28;1260;-68
2022/11/15 09:01:19;;;;;;;;;;;19.70;67.90;;;;;;5066391;28;871;-68
2022/11/15 09:03:44;;;;;;;;;;;19.70;67.10;;;;;;5050726;28;1909;-68
2022/11/15 09:06:10;;;;;;;;;;;19.70;66.40;;;;;;5065094;28;1030;-68
2022/11/15 09:08:35;;;;;;;;;;;19.70;64.10;;;;;;5066885;28;1348;-68
2022/11/15 09:11:04;;;;;;;;;;;19.70;63.90;;;;;;5048703;28;820;-68
2022/11/15 09:13:30;;;;;;;;;;;19.70;64.00;;;;;;5065051;28;1113;-69
2022/11/15 09:15:59;;;;;;;;;;;19.70;63.10;;;;;;5066391;28;824;-68
2022/11/15 09:18:24;;;;;;;;;;;19.70;61.20;;;;;;5063446;28;1361;-68
2022/11/15 09:20:50;;;;;;;;;;;19.70;61.60;;;;;;5046361;28;843;-69
2022/11/15 09:23:15;;;;;;;;;;;19.70;61.30;;;;;;5063684;28;1975;-69
2022/11/15 09:25:41;;;;;;;;;;;19.70;60.60;;;;;;5057633;28;1725;-69
2022/11/15 09:28:07;;;;;;;;;;;19.60;60.50;;;;;;5065176;28;842;-69
2022/11/15 09:30:32;;;;;;;;;;;19.60;59.60;;;;;;5046011;28;1271;-70
2022/11/15 09:32:58;;;;;;;;;;;19.60;60.00;;;;;;5048670;28;1474;-69
2022/11/15 09:35:23;;;;;;;;;;;19.60;59.70;;;;;;5064889;28;894;-68
2022/11/15 09:37:49;;;;;;;;;;;19.60;59.70;;;;;;5067859;28;966;-68
2022/11/15 09:40:16;;;;;;;;;;;19.60;59.50;;;;;;5064506;28;1280;-69
2022/11/15 09:42:56;;;;;;;;;;;19.60;59.20;;;;;;5063066;28;891;-68
2022/11/15 09:45:23;;;;;;;;;;;19.60;59.60;;;;;;5065109;28;1910;-68
2022/11/15 09:48:08;;;;;;;;;;;19.50;59.10;;;;;;5051188;28;883;-67
2022/11/15 09:50:36;;;;;;;;;;;19.50;59.00;;;;;;5051456;28;1212;-68
2022/11/15 09:53:02;;;;;;;;;;;19.50;59.10;;;;;;5065904;28;913;-67
2022/11/15 09:55:33;;;;;;;;;;;19.50;59.50;;;;;;5053311;28;871;-67
2022/11/15 09:58:09;;;;;;;;;;;19.50;58.50;;;;;;5046044;28;919;-67
2022/11/15 10:00:37;;;;;;;;;;;19.50;58.10;;;;;;5051768;28;1219;-67
2022/11/15 10:03:12;;;;;;;;;;;19.40;56.20;;;;;;5061619;28;1521;-68
2022/11/15 10:05:42;;;;;;;;;;;19.40;57.30;;;;;;5061903;28;920;-69
2022/11/15 10:08:10;;;;;;;;;;;19.40;57.10;;;;;;5065717;28;820;-68
2022/11/15 10:10:38;;;;;;;;;;;19.40;57.20;;;;;;5057762;28;1291;-68
2022/11/15 10:13:03;;;;;;;;;;;19.30;57.50;;;;;;5032098;28;1386;-69
2022/11/15 10:15:29;;;;;;;;;;;19.30;58.00;;;;;;5063941;28;965;-68
2022/11/15 10:17:58;;;;;;;;;;;19.30;58.20;;;;;;5050226;28;1006;-68
2022/11/15 10:20:24;;;;;;;;;;;19.30;58.50;;;;;;5045396;28;1354;-69
2022/11/15 10:22:51;;;;;;;;;;;19.30;58.80;;;;;;5049604;28;904;-69
2022/11/15 10:25:20;;;;;;;;;;;19.20;59.00;;;;;;5059825;28;2000;-69
2022/11/15 10:28:06;;;;;;;;;;;19.20;59.40;;;;;;5063350;28;1235;-69
2022/11/15 10:30:34;;;;;;;;;;;19.20;59.70;;;;;;5062229;28;1303;-68
2022/11/15 10:33:00;;;;;;;;;;;19.20;60.00;;;;;;5045962;28;1148;-69
2022/11/15 10:35:27;;;;;;;;;;;19.20;60.30;;;;;;5040520;28;914;-68
2022/11/15 10:37:58;;;;;;;;;;;19.20;60.60;;;;;;5040652;28;815;-69
2022/11/15 10:40:23;;;;;;;;;;;19.20;60.80;;;;;;5043826;28;1351;-69
2022/11/15 10:43:03;;;;;;;;;;;19.20;61.00;;;;;;5059711;28;1563;-69
2022/11/15 10:45:30;;;;;;;;;;;19.20;61.30;;;;;;5057357;28;1942;-68
2022/11/15 10:48:15;;;;;;;;;;;19.20;61.50;;;;;;5065718;28;831;-68
2022/11/15 10:50:41;;;;;;;;;;;19.20;61.70;;;;;;5063589;28;1058;-69
2022/11/15 10:53:16;;;;;;;;;;;19.20;62.00;;;;;;5046924;28;1692;-69
2022/11/15 10:55:41;;;;;;;;;;;19.20;62.20;;;;;;5061964;28;860;-69
2022/11/15 10:58:19;;;;;;;;;;;19.20;62.30;;;;;;5051039;28;888;-69
2022/11/15 11:00:44;;;;;;;;;;;19.20;62.50;;;;;;5049768;28;871;-69
2022/11/15 11:03:29;;;;;;;;;;;19.20;62.70;;;;;;5050566;28;1882;-68
2022/11/15 11:06:09;;;;;;;;;;;19.20;62.80;;;;;;5047546;28;2186;-67
2022/11/15 11:08:34;;;;;;;;;;;19.20;63.00;;;;;;5044932;28;1371;-69
2022/11/15 11:11:00;;;;;;;;;;;19.20;63.10;;;;;;5050339;28;1370;-69
2022/11/15 11:13:26;;;;;;;;;;;19.20;64.00;;;;;;5058576;28;808;-68
2022/11/15 11:16:10;;;;;;;;;;;19.20;63.30;;;;;;5063775;28;945;-68
2022/11/15 11:18:38;;;;;;;;;;;19.10;63.40;;;;;;5063459;28;1285;-68
2022/11/15 11:21:07;;;;;;;;;;;19.10;63.60;;;;;;5046598;28;840;-68
2022/11/15 11:23:52;;;;;;;;;;;19.10;63.60;;;;;;5033462;28;1955;-68
2022/11/15 11:26:31;;;;;;;;;;;19.10;63.80;;;;;;5062696;28;1277;-69
2022/11/15 11:28:59;;;;;;;;;;;19.20;64.00;;;;;;5061401;28;1251;-68
2022/11/15 11:31:30;;;;;;;;;;;19.10;64.10;;;;;;5050988;28;1346;-68
2022/11/15 11:34:15;;;;;;;;;;;19.10;64.10;;;;;;5053787;28;1697;-68
2022/11/15 11:36:52;;;;;;;;;;;19.10;64.10;;;;;;5064176;28;928;-68
2022/11/15 11:39:17;;;;;;;;;;;19.10;64.30;;;;;;5050230;28;1252;-68
2022/11/15 11:41:55;;;;;;;;;;;19.10;64.40;;;;;;5067741;28;1034;-69
2022/11/15 11:44:20;;;;;;;;;;;19.10;64.50;;;;;;5067446;28;1957;-69
2022/11/15 11:46:46;;;;;;;;;;;19.10;64.60;;;;;;5064322;28;875;-70
2022/11/15 11:49:30;;;;;;;;;;;19.10;64.70;;;;;;5070364;28;1233;-69
2022/11/15 11:52:00;;;;;;;;;;;19.10;64.80;;;;;;5066329;28;982;-69
2022/11/15 11:54:49;;;;;;;;;;;19.10;64.90;;;;;;5055469;28;922;-69
2022/11/15 11:57:42;;;;;;;;;;;19.10;64.90;;;;;;5035569;28;1186;-68
2022/11/15 12:00:15;;;;;;;;;;;19.10;65.20;;;;;;5063058;28;1279;-68
2022/11/15 12:02:42;;;;;;;;;;;19.10;65.20;;;;;;5056174;28;1022;-68
2022/11/15 12:05:09;;;;;;;;;;;19.10;65.20;;;;;;5054643;28;1894;-68
2022/11/15 12:07:35;;;;;;;;;;;19.10;65.30;;;;;;5050083;28;847;-68
2022/11/15 12:10:19;;;;;;;;;;;19.10;65.30;;;;;;5047869;28;1300;-69
2022/11/15 12:12:54;;;;;;;;;;;19.10;65.30;;;;;;5051482;28;846;-68
2022/11/15 12:15:21;;;;;;;;;;;19.10;65.40;;;;;;5055733;28;840;-68
2022/11/15 12:17:47;;;;;;;;;;;19.10;65.40;;;;;;5071875;28;808;-68
2022/11/15 12:20:22;;;;;;;;;;;19.10;65.50;;;;;;5068298;28;1284;-68
2022/11/15 12:22:54;;;;;;;;;;;19.10;65.50;;;;;;5051379;28;892;-68
2022/11/15 12:25:21;;;;;;;;;;;19.10;65.60;;;;;;5054603;28;1902;-68
2022/11/15 12:28:06;;;;;;;;;;;19.10;65.60;;;;;;5055800;28;1399;-68
2022/11/15 12:30:58;;;;;;;;;;;19.10;65.70;;;;;;5050229;28;1282;-68
2022/11/15 12:33:29;;;;;;;;;;;19.10;65.80;;;;;;5037515;28;1153;-69
2022/11/15 12:35:58;;;;;;;;;;;19.10;65.80;;;;;;5068277;28;839;-68
2022/11/15 12:38:42;;;;;;;;;;;19.10;65.90;;;;;;5049922;28;1331;-69
2022/11/15 12:41:14;;;;;;;;;;;19.10;65.90;;;;;;5067672;28;890;-68
2022/11/15 12:43:43;;;;;;;;;;;19.10;66.00;;;;;;5051209;28;1906;-68
2022/11/15 12:46:32;;;;;;;;;;;19.10;66.00;;;;;;5066590;28;863;-68
2022/11/15 12:49:01;;;;;;;;;;;19.10;66.00;;;;;;5015770;28;1237;-68
2022/11/15 12:51:41;;;;;;;;;;;19.10;66.10;;;;;;5063585;28;875;-69
2022/11/15 12:54:22;;;;;;;;;;;19.10;66.10;;;;;;5063871;28;923;-68
2022/11/15 12:57:03;;;;;;;;;;;19.10;66.20;;;;;;5066834;28;865;-68
2022/11/15 12:59:47;;;;;;;;;;;19.10;66.30;;;;;;5064928;28;1323;-68
2022/11/15 13:02:18;;;;;;;;;;;19.10;66.30;;;;;;5063905;28;823;-68
2022/11/15 13:06:00;;;;;;;;;;;19.10;65.70;;;;;;6017330;23;3609;31
2022/11/15 13:08:39;;;;;;;;;;;19.10;66.40;;;;;;5046533;28;1962;-67
2022/11/15 13:11:43;;;;;;;;;;;19.10;66.40;;;;;;5060152;28;1493;-68
2022/11/15 13:14:27;;;;;;;;;;;19.10;66.60;;;;;;5060972;28;1541;-68
2022/11/15 13:16:59;;;;;;;;;;;19.10;67.30;;;;;;5063270;28;1276;-68
2022/11/15 13:19:24;;;;;;;;;;;19.00;66.50;;;;;;5050676;28;1129;-68
2022/11/15 13:24:37;;;;;;;;;;;19.10;66.70;;;;;;5063081;28;1910;-68
2022/11/15 13:27:09;;;;;;;;;;;19.00;66.70;;;;;;5059151;28;1413;-69
2022/11/15 13:29:35;;;;;;;;;;;19.00;66.70;;;;;;5055337;28;1517;-68
2022/11/15 13:32:00;;;;;;;;;;;19.10;66.80;;;;;;5056610;28;1418;-68
2022/11/15 13:34:33;;;;;;;;;;;19.10;66.80;;;;;;5054307;28;1308;-68
2022/11/15 13:36:58;;;;;;;;;;;19.00;66.80;;;;;;5056589;28;1592;-68
2022/11/15 13:39:24;;;;;;;;;;;19.00;66.80;;;;;;5058928;28;1373;-67
2022/11/15 13:41:50;;;;;;;;;;;19.00;66.80;;;;;;5057317;28;1338;-68
2022/11/15 13:44:33;;;;;;;;;;;19.00;66.90;;;;;;5056136;28;1967;-67
2022/11/15 13:47:03;;;;;;;;;;;19.00;66.90;;;;;;5057942;28;1655;-67
2022/11/15 13:49:28;;;;;;;;;;;19.00;66.90;;;;;;5055069;28;1394;-67
2022/11/15 13:51:54;;;;;;;;;;;19.00;66.90;;;;;;5056410;28;1556;-68
2022/11/15 13:54:23;;;;;;;;;;;19.00;67.00;;;;;;5058399;28;1333;-68
2022/11/15 13:56:50;;;;;;;;;;;19.10;67.10;;;;;;5055304;28;1358;-69
2022/11/15 13:59:26;;;;;;;;;;;19.00;67.10;;;;;;5056127;28;1515;-69
2022/11/15 14:01:51;;;;;;;;;;;19.00;67.10;;;;;;5056690;28;1317;-67
2022/11/15 14:04:18;;;;;;;;;;;19.00;67.10;;;;;;5055653;28;1890;-68
2022/11/15 14:06:45;;;;;;;;;;;19.00;67.10;;;;;;5045723;28;1657;-69
2022/11/15 14:09:10;;;;;;;;;;;19.00;67.20;;;;;;5053625;28;858;-68
2022/11/15 14:11:36;;;;;;;;;;;19.00;67.20;;;;;;5059975;28;839;-68
2022/11/15 14:14:04;;;;;;;;;;;19.00;67.20;;;;;;5056305;28;1208;-68
2022/11/15 14:16:42;;;;;;;;;;;19.00;67.20;;;;;;5045529;28;1306;-68
2022/11/15 14:19:12;;;;;;;;;;;19.00;67.30;;;;;;5049149;28;1290;-68
2022/11/15 14:21:58;;;;;;;;;;;19.00;67.40;;;;;;5041761;28;1429;-66
2022/11/15 14:24:24;;;;;;;;;;;19.00;67.40;;;;;;5040304;28;1902;-66
2022/11/15 14:26:49;;;;;;;;;;;19.00;67.40;;;;;;5043513;28;1350;-68
2022/11/15 14:29:28;;;;;;;;;;;19.00;67.50;;;;;;5043188;28;1204;-68
2022/11/15 14:31:54;;;;;;;;;;;19.00;67.40;;;;;;5039111;28;1275;-68
2022/11/15 14:34:21;;;;;;;;;;;19.00;67.50;;;;;;5036018;28;958;-68
2022/11/15 14:36:47;;;;;;;;;;;19.00;67.50;;;;;;5044119;28;1217;-68
2022/11/15 14:39:13;;;;;;;;;;;19.00;67.50;;;;;;5036881;28;900;-68
2022/11/15 14:41:38;;;;;;;;;;;19.00;67.50;;;;;;5039606;28;775;-68
2022/11/15 14:44:04;;;;;;;;;;;19.00;67.60;;;;;;5039867;28;1890;-68
2022/11/15 14:46:30;;;;;;;;;;;19.00;67.60;;;;;;5036433;28;1268;-68
2022/11/15 14:48:55;;;;;;;;;;;19.00;67.60;;;;;;5038387;28;2089;-68
2022/11/15 14:51:20;;;;;;;;;;;19.00;67.60;;;;;;5042790;28;2008;-68
2022/11/15 14:53:46;;;;;;;;;;;19.00;67.70;;;;;;5037904;28;1293;-68
2022/11/15 14:56:12;;;;;;;;;;;19.00;67.70;;;;;;5038776;28;1327;-68
2022/11/15 14:58:37;;;;;;;;;;;19.00;67.70;;;;;;5038078;28;1363;-68